aviador You're here:

CYEG Decoded Metar

EDMONTON in AB, CANADA
Report Time2018-01-17 18:00:00
UTC Time2018-01-17 18:17:44
Flight Rules vfr VFR
Wind230° at 05 kt
W.Decomp.*RWY 20: 4.9 kt HW 1.1 kt RCW
RWY 30: 0.3 kt HW 5 kt LCW
W.Rank230° ranks 25
Current wind is below 230° avg. (5.0)
Visibility9999 m
Phenomena:N/A
Clouds:Scattered 240 Hf
Expected CloudBase > 2,800 ft AGL from Temp-Dew spread
CeilingNone
Temp00°C (ISA -10)
Dew Point-7°C (60% RH)
AAT-4.6°C
QNH1012 hPa
Density Alt1,214 ft
Elevation2,372 ft
Report Wrong Elevation
Raw Report
CYEG 171800Z 23005KT 15SM SCT240 M00/M07 A2989 RMK CI3 SLP156=

Extra information for CYEG:More info

Metar Taf Metar & Taf Last 4 Metars F.Rules Stats Wind Profile Meteogram Temp Stats Airport Information Weather charts Add Link Nearby VenuesMetar ALERT Operation Metar Decoded Social comments